Time;durP1;ratioP1;P1;durP2;ratioP2;P2;SDS_P1;SDS_P2;PMS_P1;PMS_P2;Temp;Humidity;BMP_temperature;BMP_pressure;BME280_temperature;BME280_humidity;BME280_pressure;Samples;Min_cycle;Max_cycle;Signal;HPM_P1;HPM_P2
2022/05/21 00:01:39;;;;;;;;;;;19.90;63.90;;;;;;5053788;28;706;-69
2022/05/21 00:04:04;;;;;;;;;;;19.90;63.90;;;;;;5052996;28;1898;-67
2022/05/21 00:06:30;;;;;;;;;;;19.90;63.90;;;;;;5054361;28;1315;-69
2022/05/21 00:08:55;;;;;;;;;;;19.90;63.90;;;;;;5054106;28;927;-68
2022/05/21 00:11:21;;;;;;;;;;;19.90;63.90;;;;;;5053416;28;936;-67
2022/05/21 00:13:48;;;;;;;;;;;19.90;63.90;;;;;;5054271;28;954;-68
2022/05/21 00:16:14;;;;;;;;;;;19.90;64.00;;;;;;5054030;28;1206;-68
2022/05/21 00:18:39;;;;;;;;;;;19.90;63.90;;;;;;5053914;28;1099;-68
2022/05/21 00:21:05;;;;;;;;;;;19.90;63.90;;;;;;5053608;28;1069;-68
2022/05/21 00:23:31;;;;;;;;;;;19.90;64.00;;;;;;5053676;28;1899;-68
2022/05/21 00:28:23;;;;;;;;;;;19.90;64.00;;;;;;5063587;23;2199;-75
2022/05/21 00:30:48;;;;;;;;;;;19.90;64.00;;;;;;5035464;28;1038;-75
2022/05/21 00:33:14;;;;;;;;;;;19.90;64.00;;;;;;5035836;28;924;-76
2022/05/21 00:35:39;;;;;;;;;;;19.90;64.00;;;;;;5053749;28;919;-76
2022/05/21 00:38:05;;;;;;;;;;;19.90;64.00;;;;;;5049870;28;1278;-76
2022/05/21 00:40:30;;;;;;;;;;;19.90;64.00;;;;;;5051991;28;1035;-74
2022/05/21 00:42:56;;;;;;;;;;;19.90;64.00;;;;;;5052035;28;1978;-75
2022/05/21 00:45:21;;;;;;;;;;;19.90;64.00;;;;;;5052545;28;895;-75
2022/05/21 00:47:46;;;;;;;;;;;19.90;64.00;;;;;;5053593;28;1290;-74
2022/05/21 00:50:13;;;;;;;;;;;19.90;64.00;;;;;;5052911;28;920;-75
2022/05/21 00:52:38;;;;;;;;;;;19.90;64.00;;;;;;5035839;28;1239;-75
2022/05/21 00:55:08;;;;;;;;;;;19.80;63.90;;;;;;5035124;28;837;-75
2022/05/21 00:57:43;;;;;;;;;;;19.90;64.00;;;;;;5052081;28;1302;-74
2022/05/21 01:00:19;;;;;;;;;;;19.90;64.00;;;;;;5052383;28;813;-76
2022/05/21 01:02:49;;;;;;;;;;;19.90;64.10;;;;;;5054966;28;1953;-76
2022/05/21 01:05:15;;;;;;;;;;;19.90;64.00;;;;;;5058442;28;1238;-76
2022/05/21 01:07:41;;;;;;;;;;;19.90;64.00;;;;;;5052355;28;1281;-75
2022/05/21 01:10:08;;;;;;;;;;;19.90;64.10;;;;;;5034565;28;1337;-75
2022/05/21 01:12:35;;;;;;;;;;;19.90;64.00;;;;;;5051742;28;861;-75
2022/05/21 01:15:02;;;;;;;;;;;19.90;64.00;;;;;;5051742;28;1122;-75
2022/05/21 01:17:28;;;;;;;;;;;19.90;64.10;;;;;;5035093;28;1503;-75
2022/05/21 01:19:53;;;;;;;;;;;19.90;64.00;;;;;;5051882;28;1173;-75
2022/05/21 01:22:23;;;;;;;;;;;19.90;64.00;;;;;;5067844;28;1961;-76
2022/05/21 01:24:49;;;;;;;;;;;19.90;64.10;;;;;;5035046;28;1514;-76
2022/05/21 01:27:14;;;;;;;;;;;19.90;64.10;;;;;;5052568;28;1227;-76
2022/05/21 01:29:39;;;;;;;;;;;19.90;64.10;;;;;;5052993;28;1149;-75
2022/05/21 01:32:05;;;;;;;;;;;19.90;64.10;;;;;;5052665;28;867;-75
2022/05/21 01:34:31;;;;;;;;;;;19.90;64.10;;;;;;5051344;28;1032;-75
2022/05/21 01:36:56;;;;;;;;;;;19.80;64.00;;;;;;5051580;28;1214;-75
2022/05/21 01:39:21;;;;;;;;;;;19.90;64.10;;;;;;5051428;28;831;-75
2022/05/21 01:41:48;;;;;;;;;;;19.90;64.10;;;;;;5051862;28;887;-74
2022/05/21 01:46:58;;;;;;;;;;;19.90;64.10;;;;;;5052567;28;1365;-75
2022/05/21 01:49:23;;;;;;;;;;;19.90;64.20;;;;;;5047318;28;2059;-74
2022/05/21 01:51:49;;;;;;;;;;;19.90;64.10;;;;;;5041754;28;1007;-74
2022/05/21 01:54:14;;;;;;;;;;;19.90;64.10;;;;;;5048602;28;1185;-75
2022/05/21 01:56:40;;;;;;;;;;;19.90;64.20;;;;;;5044381;28;1347;-75
2022/05/21 01:59:05;;;;;;;;;;;19.90;64.20;;;;;;5052226;28;810;-74
2022/05/21 02:01:31;;;;;;;;;;;19.90;64.10;;;;;;5051504;28;1124;-76
2022/05/21 02:03:56;;;;;;;;;;;19.90;64.20;;;;;;5032312;28;1902;-77
2022/05/21 02:06:21;;;;;;;;;;;19.90;64.20;;;;;;5048027;28;1211;-77
2022/05/21 02:08:47;;;;;;;;;;;19.90;64.20;;;;;;5051974;28;848;-77
2022/05/21 02:11:12;;;;;;;;;;;19.90;64.20;;;;;;5053145;28;801;-77
2022/05/21 02:13:38;;;;;;;;;;;19.90;64.20;;;;;;5056557;28;844;-77
2022/05/21 02:16:03;;;;;;;;;;;19.90;64.20;;;;;;5055222;28;1215;-77
2022/05/21 02:18:29;;;;;;;;;;;19.90;64.20;;;;;;5038293;28;1417;-77
2022/05/21 02:20:54;;;;;;;;;;;19.90;64.20;;;;;;5054436;28;841;-77
2022/05/21 02:23:20;;;;;;;;;;;19.90;64.20;;;;;;5050992;28;1959;-76
2022/05/21 02:25:45;;;;;;;;;;;19.90;64.20;;;;;;5045686;28;1195;-76
2022/05/21 02:28:12;;;;;;;;;;;19.90;64.20;;;;;;5059001;28;1348;-76
2022/05/21 02:30:39;;;;;;;;;;;19.90;64.30;;;;;;5075354;28;1269;-76
2022/05/21 02:33:04;;;;;;;;;;;19.90;64.20;;;;;;5043254;28;1207;-77
2022/05/21 02:35:30;;;;;;;;;;;19.90;64.20;;;;;;5078808;28;1262;-77
2022/05/21 02:40:39;;;;;;;;;;;19.80;64.20;;;;;;5041551;28;1100;-77
2022/05/21 02:43:05;;;;;;;;;;;19.90;64.20;;;;;;5036318;28;1987;-78
2022/05/21 02:45:30;;;;;;;;;;;19.90;64.20;;;;;;5051280;28;801;-77
2022/05/21 02:47:56;;;;;;;;;;;19.90;64.30;;;;;;5034598;28;1204;-77
2022/05/21 02:50:23;;;;;;;;;;;19.90;64.20;;;;;;5033871;28;1100;-75
2022/05/21 02:52:48;;;;;;;;;;;19.90;64.30;;;;;;5035928;28;1058;-75
2022/05/21 02:55:14;;;;;;;;;;;19.80;64.20;;;;;;5050756;28;923;-76
2022/05/21 02:57:40;;;;;;;;;;;19.80;64.20;;;;;;5051120;28;1211;-77
2022/05/21 03:00:07;;;;;;;;;;;19.90;64.30;;;;;;5039412;28;2332;-78
2022/05/21 03:02:32;;;;;;;;;;;19.80;64.20;;;;;;5051345;28;1958;-77
2022/05/21 03:04:58;;;;;;;;;;;19.90;64.30;;;;;;5051989;28;1175;-77
2022/05/21 03:07:23;;;;;;;;;;;19.90;64.30;;;;;;5034199;28;1289;-77
2022/05/21 03:12:33;;;;;;;;;;;19.90;64.30;;;;;;5036223;28;640;-77
2022/05/21 03:14:58;;;;;;;;;;;19.80;64.20;;;;;;5034906;28;932;-77
2022/05/21 03:17:27;;;;;;;;;;;19.80;64.20;;;;;;5050680;28;1275;-77
2022/05/21 03:19:52;;;;;;;;;;;19.90;64.30;;;;;;5052792;28;1183;-77
2022/05/21 03:22:18;;;;;;;;;;;19.90;65.00;;;;;;5055185;28;1906;-76
2022/05/21 03:24:44;;;;;;;;;;;19.80;64.20;;;;;;5055272;28;816;-77
2022/05/21 03:27:10;;;;;;;;;;;19.90;64.30;;;;;;5037054;28;1303;-77
2022/05/21 03:29:35;;;;;;;;;;;19.90;64.30;;;;;;5054826;28;1173;-77
2022/05/21 03:32:01;;;;;;;;;;;19.90;64.30;;;;;;5054343;28;813;-77
2022/05/21 03:34:26;;;;;;;;;;;19.90;64.30;;;;;;5053746;28;896;-77
2022/05/21 03:36:52;;;;;;;;;;;19.90;64.30;;;;;;5053631;28;1222;-77
2022/05/21 03:39:17;;;;;;;;;;;19.80;64.30;;;;;;5036812;28;845;-77
2022/05/21 03:41:42;;;;;;;;;;;19.90;64.40;;;;;;5053123;28;1385;-77
2022/05/21 03:44:09;;;;;;;;;;;19.80;64.30;;;;;;5054805;28;1909;-77
2022/05/21 03:46:38;;;;;;;;;;;19.90;64.40;;;;;;5054661;28;1232;-77
2022/05/21 03:49:04;;;;;;;;;;;19.90;64.40;;;;;;5054323;28;884;-77
2022/05/21 03:51:29;;;;;;;;;;;19.90;64.40;;;;;;5054311;28;883;-77
2022/05/21 03:53:55;;;;;;;;;;;19.80;64.30;;;;;;5054475;28;640;-77
2022/05/21 03:56:20;;;;;;;;;;;19.90;64.40;;;;;;5053140;28;1275;-77
2022/05/21 03:58:45;;;;;;;;;;;19.90;64.40;;;;;;5052971;28;770;-77
2022/05/21 04:01:11;;;;;;;;;;;19.90;64.40;;;;;;5052738;28;846;-77
2022/05/21 04:03:36;;;;;;;;;;;19.80;64.30;;;;;;5053201;28;1902;-77
2022/05/21 04:06:02;;;;;;;;;;;19.80;64.30;;;;;;5053521;28;1258;-77
2022/05/21 04:08:27;;;;;;;;;;;19.80;64.30;;;;;;5053988;28;804;-77
2022/05/21 04:10:53;;;;;;;;;;;19.90;64.40;;;;;;5052006;28;1182;-77
2022/05/21 04:13:19;;;;;;;;;;;19.90;64.40;;;;;;5052522;28;1286;-77
2022/05/21 04:15:44;;;;;;;;;;;19.80;64.40;;;;;;5052112;28;1022;-77
2022/05/21 04:18:10;;;;;;;;;;;19.90;64.40;;;;;;5052124;28;1190;-77
2022/05/21 04:20:35;;;;;;;;;;;19.90;64.40;;;;;;5051529;28;856;-77
2022/05/21 04:23:01;;;;;;;;;;;19.90;64.40;;;;;;5052438;28;1906;-77
2022/05/21 04:25:26;;;;;;;;;;;19.80;64.30;;;;;;5051791;28;864;-77
2022/05/21 04:27:52;;;;;;;;;;;19.80;64.40;;;;;;5051851;28;1238;-76
2022/05/21 04:30:18;;;;;;;;;;;19.80;64.40;;;;;;5050941;28;1224;-77
2022/05/21 04:32:44;;;;;;;;;;;19.80;64.40;;;;;;5051829;28;912;-77
2022/05/21 04:35:09;;;;;;;;;;;19.90;64.40;;;;;;5050970;28;1116;-77
2022/05/21 04:37:36;;;;;;;;;;;19.80;64.40;;;;;;5051376;28;1330;-77
2022/05/21 04:40:02;;;;;;;;;;;19.90;64.50;;;;;;5052215;28;827;-77
2022/05/21 04:42:27;;;;;;;;;;;19.90;64.40;;;;;;5034943;28;1902;-77
2022/05/21 04:44:53;;;;;;;;;;;19.90;64.50;;;;;;5035000;28;778;-77
2022/05/21 04:47:18;;;;;;;;;;;19.90;64.40;;;;;;5052405;28;1213;-77
2022/05/21 04:49:43;;;;;;;;;;;19.90;64.40;;;;;;5051336;28;711;-77
2022/05/21 04:52:09;;;;;;;;;;;19.80;64.40;;;;;;5052403;28;640;-77
2022/05/21 04:54:35;;;;;;;;;;;19.90;64.40;;;;;;5051419;28;703;-77
2022/05/21 04:57:00;;;;;;;;;;;19.80;64.40;;;;;;5052502;28;1321;-77
2022/05/21 04:59:26;;;;;;;;;;;19.90;64.50;;;;;;5034255;28;1418;-78
2022/05/21 05:01:51;;;;;;;;;;;19.80;64.40;;;;;;5050869;28;942;-77
2022/05/21 05:04:17;;;;;;;;;;;19.80;64.40;;;;;;5052854;28;1957;-76
2022/05/21 05:06:42;;;;;;;;;;;19.80;64.40;;;;;;5053634;28;1307;-75
2022/05/21 05:09:08;;;;;;;;;;;19.90;64.50;;;;;;5051938;28;939;-76
2022/05/21 05:11:34;;;;;;;;;;;19.80;64.50;;;;;;5051834;28;1230;-76
2022/05/21 05:13:59;;;;;;;;;;;19.90;64.50;;;;;;5035664;28;1187;-76
2022/05/21 05:16:25;;;;;;;;;;;19.80;64.50;;;;;;5051678;28;1300;-76
2022/05/21 05:18:50;;;;;;;;;;;19.80;64.40;;;;;;5034568;28;1166;-76
2022/05/21 05:21:15;;;;;;;;;;;19.90;64.50;;;;;;5051131;28;921;-76
2022/05/21 05:23:41;;;;;;;;;;;19.90;64.50;;;;;;5052670;28;1949;-76
2022/05/21 05:26:06;;;;;;;;;;;19.80;64.40;;;;;;5052445;28;1231;-77
2022/05/21 05:28:32;;;;;;;;;;;19.80;64.40;;;;;;5051264;28;1200;-76
2022/05/21 05:30:57;;;;;;;;;;;19.90;64.30;;;;;;5050407;28;933;-76
2022/05/21 05:33:23;;;;;;;;;;;19.80;60.40;;;;;;5052043;28;868;-78
2022/05/21 05:35:50;;;;;;;;;;;19.90;59.30;;;;;;5050690;28;888;-79
2022/05/21 05:38:16;;;;;;;;;;;19.80;60.50;;;;;;5052569;28;1231;-77
2022/05/21 05:40:43;;;;;;;;;;;19.80;60.30;;;;;;5039500;28;1851;-73
2022/05/21 05:43:10;;;;;;;;;;;19.80;60.50;;;;;;5048766;28;1905;-77
2022/05/21 05:45:36;;;;;;;;;;;19.80;60.30;;;;;;5040487;28;1129;-78
2022/05/21 05:48:01;;;;;;;;;;;19.80;60.50;;;;;;5031909;28;1294;-77
2022/05/21 05:50:27;;;;;;;;;;;19.80;61.00;;;;;;5030429;28;825;-73
2022/05/21 05:52:52;;;;;;;;;;;19.80;60.70;;;;;;5031449;28;912;-77
2022/05/21 05:55:18;;;;;;;;;;;19.80;60.80;;;;;;5030235;28;829;-76
2022/05/21 05:57:43;;;;;;;;;;;19.80;60.50;;;;;;5013326;28;1337;-74
2022/05/21 06:00:09;;;;;;;;;;;19.80;60.40;;;;;;5028997;28;1007;-76
2022/05/21 06:05:19;;;;;;;;;;;19.80;60.20;;;;;;5034184;28;2164;-75
2022/05/21 06:07:55;;;;;;;;;;;19.80;60.50;;;;;;5049335;28;1238;-77
2022/05/21 06:10:21;;;;;;;;;;;19.80;60.30;;;;;;5048954;28;1138;-74
2022/05/21 06:12:48;;;;;;;;;;;19.80;60.10;;;;;;5049635;28;1258;-71
2022/05/21 06:15:13;;;;;;;;;;;19.70;60.40;;;;;;5049757;28;821;-71
2022/05/21 06:17:39;;;;;;;;;;;19.80;60.50;;;;;;5048736;28;1294;-71
2022/05/21 06:20:05;;;;;;;;;;;19.80;60.20;;;;;;5029517;28;1109;-71
2022/05/21 06:22:32;;;;;;;;;;;19.80;60.60;;;;;;5029644;28;1963;-71
2022/05/21 06:24:57;;;;;;;;;;;19.70;60.10;;;;;;5029053;28;1481;-69
2022/05/21 06:27:23;;;;;;;;;;;19.80;60.30;;;;;;5030551;28;1231;-69
2022/05/21 06:29:48;;;;;;;;;;;19.70;60.40;;;;;;5042534;28;1170;-70
2022/05/21 06:32:13;;;;;;;;;;;19.80;60.40;;;;;;5050217;28;864;-71
2022/05/21 06:34:39;;;;;;;;;;;19.70;60.00;;;;;;5050189;28;762;-74
2022/05/21 06:37:05;;;;;;;;;;;19.70;60.30;;;;;;5050502;28;1244;-70
2022/05/21 06:39:31;;;;;;;;;;;19.80;60.10;;;;;;5032520;28;1164;-70
2022/05/21 06:41:56;;;;;;;;;;;19.70;59.80;;;;;;5048691;28;817;-74
2022/05/21 06:44:23;;;;;;;;;;;19.70;60.10;;;;;;5048991;28;1894;-71
2022/05/21 06:46:49;;;;;;;;;;;19.70;59.70;;;;;;5031916;28;1217;-71
2022/05/21 06:49:14;;;;;;;;;;;19.70;59.80;;;;;;5050289;28;1015;-73
2022/05/21 06:51:39;;;;;;;;;;;19.70;59.50;;;;;;5041734;23;1953;-72
2022/05/21 06:54:05;;;;;;;;;;;19.70;59.80;;;;;;5030203;28;612;-72
2022/05/21 06:56:30;;;;;;;;;;;19.70;59.60;;;;;;5031315;28;826;-72
2022/05/21 06:58:56;;;;;;;;;;;19.70;59.80;;;;;;5033989;28;2046;-71
2022/05/21 07:01:21;;;;;;;;;;;19.70;59.50;;;;;;5033993;28;1232;-70
2022/05/21 07:03:47;;;;;;;;;;;19.70;59.70;;;;;;5034485;28;1902;-70
2022/05/21 07:08:56;;;;;;;;;;;19.70;59.40;;;;;;5029182;28;1732;-70
2022/05/21 07:11:21;;;;;;;;;;;19.70;59.60;;;;;;5034178;28;1232;-70
2022/05/21 07:13:47;;;;;;;;;;;19.70;59.40;;;;;;5035212;28;617;-71
2022/05/21 07:16:12;;;;;;;;;;;19.70;59.40;;;;;;5034233;28;996;-71
2022/05/21 07:18:38;;;;;;;;;;;19.70;59.50;;;;;;5026269;28;1072;-71
2022/05/21 07:21:03;;;;;;;;;;;19.70;59.30;;;;;;5053855;28;1306;-71
2022/05/21 07:23:29;;;;;;;;;;;19.70;59.20;;;;;;5052106;28;1902;-71
2022/05/21 07:25:55;;;;;;;;;;;19.70;59.30;;;;;;5034353;28;1165;-71
2022/05/21 07:28:20;;;;;;;;;;;19.70;59.10;;;;;;5016783;28;1069;-70
2022/05/21 07:30:46;;;;;;;;;;;19.70;59.00;;;;;;5054050;28;1206;-71
2022/05/21 07:33:13;;;;;;;;;;;19.70;59.00;;;;;;5036133;28;824;-71
2022/05/21 07:35:38;;;;;;;;;;;19.70;58.90;;;;;;5053998;28;798;-70
2022/05/21 07:38:07;;;;;;;;;;;19.70;58.90;;;;;;5054001;28;1002;-71
2022/05/21 07:40:32;;;;;;;;;;;19.70;59.10;;;;;;5053587;28;1204;-71
2022/05/21 07:42:58;;;;;;;;;;;19.70;59.20;;;;;;5053927;28;1961;-70
2022/05/21 07:45:23;;;;;;;;;;;19.70;59.20;;;;;;5053642;28;805;-70
2022/05/21 07:47:52;;;;;;;;;;;19.70;59.10;;;;;;5035772;28;1023;-71
2022/05/21 07:50:17;;;;;;;;;;;19.70;59.20;;;;;;5034131;28;1964;-71
2022/05/21 07:52:43;;;;;;;;;;;19.70;58.90;;;;;;5016024;28;1090;-71
2022/05/21 07:55:09;;;;;;;;;;;19.70;58.90;;;;;;5015984;28;1119;-71
2022/05/21 07:57:34;;;;;;;;;;;19.70;58.70;;;;;;5033342;28;1146;-70
2022/05/21 08:00:00;;;;;;;;;;;19.70;58.50;;;;;;5015611;28;928;-70
2022/05/21 08:02:25;;;;;;;;;;;19.70;58.60;;;;;;5032999;28;1954;-70
2022/05/21 08:04:51;;;;;;;;;;;19.70;58.40;;;;;;5033697;28;806;-70
2022/05/21 08:07:16;;;;;;;;;;;19.70;58.10;;;;;;5034406;28;738;-71
2022/05/21 08:09:42;;;;;;;;;;;19.70;58.60;;;;;;5014690;28;797;-70
2022/05/21 08:12:08;;;;;;;;;;;19.70;58.60;;;;;;5015458;28;1280;-70
2022/05/21 08:14:33;;;;;;;;;;;19.70;58.60;;;;;;5033501;28;939;-71
2022/05/21 08:16:59;;;;;;;;;;;19.70;58.40;;;;;;5016181;28;853;-71
2022/05/21 08:19:24;;;;;;;;;;;19.70;58.70;;;;;;5015586;28;795;-71
2022/05/21 08:21:50;;;;;;;;;;;19.70;58.20;;;;;;5033202;28;1287;-70
2022/05/21 08:27:00;;;;;;;;;;;19.70;58.50;;;;;;5033554;28;632;-71
2022/05/21 08:29:26;;;;;;;;;;;19.70;58.20;;;;;;5042375;28;1177;-71
2022/05/21 08:31:52;;;;;;;;;;;19.70;57.90;;;;;;5034606;28;1308;-71
2022/05/21 08:34:18;;;;;;;;;;;19.70;58.00;;;;;;5052896;28;741;-70
2022/05/21 08:36:43;;;;;;;;;;;19.70;58.50;;;;;;5052861;28;900;-70
2022/05/21 08:39:11;;;;;;;;;;;19.70;59.10;;;;;;5034998;28;908;-70
2022/05/21 08:41:38;;;;;;;;;;;19.70;58.60;;;;;;5051795;28;1240;-70
2022/05/21 08:44:05;;;;;;;;;;;19.70;58.40;;;;;;5052743;28;1937;-70
2022/05/21 08:46:40;;;;;;;;;;;19.70;59.10;;;;;;5034735;28;935;-70
2022/05/21 08:49:18;;;;;;;;;;;19.70;58.70;;;;;;5035239;28;824;-70
2022/05/21 08:51:45;;;;;;;;;;;19.70;58.30;;;;;;5033951;28;1264;-70
2022/05/21 08:54:11;;;;;;;;;;;19.70;58.20;;;;;;5052068;28;860;-70
2022/05/21 08:56:36;;;;;;;;;;;19.70;58.40;;;;;;5034290;28;875;-70
2022/05/21 08:59:05;;;;;;;;;;;19.70;62.50;;;;;;5052669;28;845;-70
2022/05/21 09:01:32;;;;;;;;;;;19.70;64.00;;;;;;5033796;28;1192;-70
2022/05/21 09:03:57;;;;;;;;;;;19.80;64.70;;;;;;5034692;28;1898;-69
2022/05/21 09:06:31;;;;;;;;;;;19.70;63.60;;;;;;5036239;28;1293;-70
2022/05/21 09:09:08;;;;;;;;;;;19.70;61.50;;;;;;5014716;28;1047;-70
2022/05/21 09:11:34;;;;;;;;;;;19.70;63.90;;;;;;5014232;28;1720;-69
2022/05/21 09:14:02;;;;;;;;;;;19.80;62.80;;;;;;5032339;28;915;-69
2022/05/21 09:17:10;;;;;;;;;;;19.80;63.50;;;;;;5032348;28;822;-70
2022/05/21 09:19:16;;;;;;;;;;;19.70;63.10;;;;;;5023950;28;1367;-69
2022/05/21 09:21:43;;;;;;;;;;;19.80;63.70;;;;;;5033885;28;1227;-69
2022/05/21 09:24:08;;;;;;;;;;;19.80;63.40;;;;;;5052247;28;1969;-69
2022/05/21 09:26:44;;;;;;;;;;;19.80;63.30;;;;;;5034454;28;802;-69
2022/05/21 09:29:18;;;;;;;;;;;19.80;63.30;;;;;;5051732;28;1099;-69
2022/05/21 09:31:43;;;;;;;;;;;19.80;63.50;;;;;;5033065;28;1232;-69
2022/05/21 09:34:11;;;;;;;;;;;19.80;63.30;;;;;;5050835;28;892;-69
2022/05/21 09:36:37;;;;;;;;;;;19.80;63.20;;;;;;5050589;28;849;-69
2022/05/21 09:39:02;;;;;;;;;;;19.80;63.20;;;;;;5051268;28;856;-69
2022/05/21 09:41:28;;;;;;;;;;;19.80;63.30;;;;;;5051493;28;1290;-69
2022/05/21 09:46:39;;;;;;;;;;;19.80;63.20;;;;;;5051842;28;659;-69
2022/05/21 09:49:33;;;;;;;;;;;19.80;63.40;;;;;;5033790;28;865;-69
2022/05/21 09:52:00;;;;;;;;;;;19.80;63.20;;;;;;5029156;28;1423;-70
2022/05/21 09:54:26;;;;;;;;;;;19.80;63.10;;;;;;5033787;28;1014;-70
2022/05/21 09:56:53;;;;;;;;;;;19.80;63.00;;;;;;5034065;28;845;-70
2022/05/21 09:59:22;;;;;;;;;;;19.80;62.90;;;;;;5033507;28;856;-70
2022/05/21 10:01:48;;;;;;;;;;;19.80;63.10;;;;;;5033438;28;1271;-70
2022/05/21 10:04:27;;;;;;;;;;;19.80;63.10;;;;;;5051420;28;1902;-70
2022/05/21 10:07:15;;;;;;;;;;;19.80;63.00;;;;;;5031975;28;1186;-70
2022/05/21 10:12:29;;;;;;;;;;;19.80;62.50;;;;;;5016601;28;1342;-70
2022/05/21 10:15:03;;;;;;;;;;;19.80;62.30;;;;;;5031801;28;1035;-70
2022/05/21 10:17:33;;;;;;;;;;;19.80;63.10;;;;;;5013843;28;873;-70
2022/05/21 10:20:10;;;;;;;;;;;19.80;62.30;;;;;;5011353;28;1031;-70
2022/05/21 10:22:43;;;;;;;;;;;19.80;62.90;;;;;;4994330;28;1911;-70
2022/05/21 10:25:18;;;;;;;;;;;19.80;62.40;;;;;;5011504;28;853;-70
2022/05/21 10:28:02;;;;;;;;;;;19.80;62.30;;;;;;4994487;28;1095;-70
2022/05/21 10:30:31;;;;;;;;;;;19.80;62.20;;;;;;5046667;28;1292;-70
2022/05/21 10:33:15;;;;;;;;;;;19.80;63.20;;;;;;5054037;28;853;-70
2022/05/21 10:35:56;;;;;;;;;;;19.80;62.40;;;;;;5055752;28;785;-70
2022/05/21 10:38:24;;;;;;;;;;;19.80;62.10;;;;;;5037573;28;899;-70
2022/05/21 10:40:51;;;;;;;;;;;19.80;62.20;;;;;;5036571;28;1220;-70
2022/05/21 10:43:24;;;;;;;;;;;19.80;62.20;;;;;;5037371;28;1886;-70
2022/05/21 10:45:54;;;;;;;;;;;19.70;61.80;;;;;;5036807;28;1117;-70
2022/05/21 10:48:28;;;;;;;;;;;19.80;62.10;;;;;;5037356;28;1007;-70
2022/05/21 10:51:03;;;;;;;;;;;19.70;61.80;;;;;;5035920;28;1502;-70
2022/05/21 10:53:42;;;;;;;;;;;19.80;61.40;;;;;;5055060;28;930;-70
2022/05/21 10:56:25;;;;;;;;;;;19.70;61.70;;;;;;5011776;28;1890;-71
2022/05/21 10:58:56;;;;;;;;;;;19.80;61.90;;;;;;5015777;28;1126;-71
2022/05/21 11:01:25;;;;;;;;;;;19.80;61.20;;;;;;5016355;28;1303;-71
2022/05/21 11:04:09;;;;;;;;;;;19.80;60.70;;;;;;5016960;28;1976;-71
2022/05/21 11:06:52;;;;;;;;;;;19.80;60.80;;;;;;5034695;28;1123;-71
2022/05/21 11:09:31;;;;;;;;;;;19.80;60.70;;;;;;5017210;28;1059;-71
2022/05/21 11:12:13;;;;;;;;;;;19.80;61.50;;;;;;5015939;28;1326;-71
2022/05/21 11:14:46;;;;;;;;;;;19.80;60.50;;;;;;5017297;28;829;-71
2022/05/21 11:17:30;;;;;;;;;;;19.80;61.40;;;;;;5017011;28;1051;-70
2022/05/21 11:20:02;;;;;;;;;;;19.80;61.40;;;;;;5014098;28;947;-70
2022/05/21 11:22:33;;;;;;;;;;;19.80;61.40;;;;;;5014466;28;1979;-71
2022/05/21 11:25:22;;;;;;;;;;;19.80;60.90;;;;;;4997435;28;845;-71
2022/05/21 11:27:49;;;;;;;;;;;19.80;59.80;;;;;;5011440;28;1172;-71
2022/05/21 11:30:16;;;;;;;;;;;19.80;60.00;;;;;;5045772;28;1368;-70
2022/05/21 11:38:20;;;;;;;;;;;19.80;59.90;;;;;;5038704;28;632;-70
2022/05/21 11:43:56;;;;;;;;;;;19.80;60.00;;;;;;5054215;28;1959;-71
2022/05/21 11:46:37;;;;;;;;;;;19.80;60.50;;;;;;5036044;28;826;-71
2022/05/21 11:49:22;;;;;;;;;;;19.70;60.70;;;;;;5035562;28;1099;-71
2022/05/21 11:51:47;;;;;;;;;;;19.80;59.40;;;;;;5053053;28;1212;-71
2022/05/21 11:54:32;;;;;;;;;;;19.80;59.20;;;;;;5053859;28;857;-71
2022/05/21 11:57:04;;;;;;;;;;;19.80;59.70;;;;;;5053289;28;868;-71
2022/05/21 11:59:48;;;;;;;;;;;19.70;59.40;;;;;;5035755;28;1015;-70
2022/05/21 12:02:17;;;;;;;;;;;19.80;59.20;;;;;;5035502;28;1264;-71
2022/05/21 12:04:43;;;;;;;;;;;19.80;58.80;;;;;;5033725;28;1910;-71
2022/05/21 12:07:12;;;;;;;;;;;19.70;58.60;;;;;;5033015;28;825;-72
2022/05/21 12:09:38;;;;;;;;;;;19.70;58.20;;;;;;5033584;28;869;-72
2022/05/21 12:12:13;;;;;;;;;;;19.70;58.30;;;;;;5015079;28;1331;-71
2022/05/21 12:14:55;;;;;;;;;;;19.70;58.00;;;;;;5033552;28;868;-71
2022/05/21 12:17:39;;;;;;;;;;;19.70;57.90;;;;;;5033555;28;809;-71
2022/05/21 12:20:05;;;;;;;;;;;19.70;57.30;;;;;;5013172;28;1000;-71
2022/05/21 12:22:44;;;;;;;;;;;19.70;57.00;;;;;;5013419;28;1902;-71
2022/05/21 12:25:14;;;;;;;;;;;19.70;56.80;;;;;;5013577;28;888;-71
2022/05/21 12:27:47;;;;;;;;;;;19.70;56.60;;;;;;4996602;28;1277;-71
2022/05/21 12:30:23;;;;;;;;;;;19.70;57.40;;;;;;5044053;28;1227;-71
2022/05/21 12:32:49;;;;;;;;;;;19.60;56.70;;;;;;5035183;28;821;-69
2022/05/21 12:35:20;;;;;;;;;;;19.70;57.20;;;;;;5052877;28;880;-69
2022/05/21 12:37:50;;;;;;;;;;;19.60;57.40;;;;;;5053025;28;821;-69
2022/05/21 12:40:43;;;;;;;;;;;19.70;58.00;;;;;;5034343;28;1334;-70
2022/05/21 12:43:09;;;;;;;;;;;19.70;57.90;;;;;;5035080;28;1961;-69
2022/05/21 12:45:36;;;;;;;;;;;19.60;57.90;;;;;;5053127;28;907;-70
2022/05/21 12:48:22;;;;;;;;;;;19.70;58.00;;;;;;5035009;28;885;-69
2022/05/21 12:53:27;;;;;;;;;;;19.70;58.30;;;;;;5036609;28;1601;-73
2022/05/21 12:56:05;;;;;;;;;;;19.70;58.50;;;;;;5035417;28;987;-73
2022/05/21 12:58:31;;;;;;;;;;;19.70;58.50;;;;;;5050398;28;819;-73
2022/05/21 13:00:56;;;;;;;;;;;19.70;58.60;;;;;;5049355;28;1239;-73
2022/05/21 13:03:22;;;;;;;;;;;19.60;58.70;;;;;;5050028;28;1913;-73
2022/05/21 13:05:47;;;;;;;;;;;19.70;58.90;;;;;;5038783;28;1143;-73
2022/05/21 13:08:13;;;;;;;;;;;19.70;58.90;;;;;;5031924;28;827;-73
2022/05/21 13:10:39;;;;;;;;;;;19.70;59.00;;;;;;5029184;28;1201;-73
2022/05/21 13:13:09;;;;;;;;;;;19.70;59.10;;;;;;5030458;28;859;-73
2022/05/21 13:15:38;;;;;;;;;;;19.60;59.10;;;;;;5013518;28;1186;-73
2022/05/21 13:18:19;;;;;;;;;;;19.60;59.20;;;;;;5034909;28;1194;-73
2022/05/21 13:20:47;;;;;;;;;;;19.60;59.30;;;;;;5049534;28;1314;-73
2022/05/21 13:23:19;;;;;;;;;;;19.70;59.40;;;;;;5049958;28;1902;-74
2022/05/21 13:25:52;;;;;;;;;;;19.60;59.40;;;;;;5049639;28;1075;-74
2022/05/21 13:28:18;;;;;;;;;;;19.60;59.40;;;;;;5032731;28;1307;-74
2022/05/21 13:30:51;;;;;;;;;;;19.70;59.50;;;;;;5048956;28;1190;-74
2022/05/21 13:33:26;;;;;;;;;;;19.60;59.60;;;;;;5048998;28;885;-79
2022/05/21 13:35:51;;;;;;;;;;;19.60;59.60;;;;;;5049598;28;1288;-80
2022/05/21 13:38:17;;;;;;;;;;;19.60;59.60;;;;;;5049133;28;1206;-83
2022/05/21 13:40:45;;;;;;;;;;;19.70;59.70;;;;;;5048665;28;1406;-71
2022/05/21 13:43:10;;;;;;;;;;;19.70;59.80;;;;;;5049405;28;1906;-73
2022/05/21 13:45:36;;;;;;;;;;;19.70;59.80;;;;;;5049790;28;1162;-73
2022/05/21 13:48:06;;;;;;;;;;;19.70;59.90;;;;;;5032343;28;1152;-74
2022/05/21 13:50:32;;;;;;;;;;;19.70;59.90;;;;;;5031655;28;1346;-74
2022/05/21 13:52:58;;;;;;;;;;;19.70;60.00;;;;;;5049130;28;927;-74
2022/05/21 13:55:24;;;;;;;;;;;19.60;60.00;;;;;;5032516;28;1289;-74
2022/05/21 13:57:49;;;;;;;;;;;19.70;60.00;;;;;;5049061;28;1103;-74
2022/05/21 14:00:21;;;;;;;;;;;19.60;60.00;;;;;;5049664;28;1280;-74
2022/05/21 14:02:48;;;;;;;;;;;19.70;60.10;;;;;;5049935;28;1989;-74
2022/05/21 14:05:30;;;;;;;;;;;19.70;60.10;;;;;;5042768;28;1144;-74
2022/05/21 14:07:56;;;;;;;;;;;19.70;60.20;;;;;;5016739;28;1329;-74
2022/05/21 14:10:37;;;;;;;;;;;19.60;60.20;;;;;;5035238;28;1296;-74
2022/05/21 14:13:04;;;;;;;;;;;19.70;60.30;;;;;;5035432;28;854;-73
2022/05/21 14:15:33;;;;;;;;;;;19.70;60.30;;;;;;5018143;28;1348;-73
2022/05/21 14:18:03;;;;;;;;;;;19.70;60.40;;;;;;5038089;28;1254;-73
2022/05/21 14:20:30;;;;;;;;;;;19.70;60.40;;;;;;5037453;28;1588;-73
2022/05/21 14:22:55;;;;;;;;;;;19.60;60.30;;;;;;5054549;28;1957;-73
2022/05/21 14:25:27;;;;;;;;;;;19.70;60.40;;;;;;5033515;28;2202;-73
2022/05/21 14:27:57;;;;;;;;;;;19.60;60.40;;;;;;5053884;28;1341;-73
2022/05/21 14:30:53;;;;;;;;;;;19.70;60.50;;;;;;5052862;28;1316;-73
2022/05/21 14:33:24;;;;;;;;;;;19.70;60.50;;;;;;5040106;28;1370;-73
2022/05/21 14:35:49;;;;;;;;;;;19.70;60.50;;;;;;5035570;28;1252;-74
2022/05/21 14:38:19;;;;;;;;;;;19.70;60.70;;;;;;5054159;28;1092;-74
2022/05/21 14:40:47;;;;;;;;;;;19.70;60.70;;;;;;5053356;28;1262;-73
2022/05/21 14:43:20;;;;;;;;;;;19.70;60.70;;;;;;5055284;28;1902;-73
2022/05/21 14:45:45;;;;;;;;;;;19.70;60.70;;;;;;5053679;28;814;-73
2022/05/21 14:48:11;;;;;;;;;;;19.70;61.50;;;;;;5054900;28;686;-73
2022/05/21 14:53:24;;;;;;;;;;;19.70;60.80;;;;;;5055055;28;609;-72
2022/05/21 14:55:50;;;;;;;;;;;19.70;60.80;;;;;;5053574;28;1166;-72
2022/05/21 14:58:15;;;;;;;;;;;19.70;60.90;;;;;;5053561;28;858;-72
2022/05/21 15:00:41;;;;;;;;;;;19.70;61.60;;;;;;5036254;28;1308;-72
2022/05/21 15:03:06;;;;;;;;;;;19.70;60.90;;;;;;5053150;28;1906;-72
2022/05/21 15:05:33;;;;;;;;;;;19.70;60.90;;;;;;5036719;28;1172;-73
2022/05/21 15:07:59;;;;;;;;;;;19.70;60.90;;;;;;5036579;28;1069;-73
2022/05/21 15:10:24;;;;;;;;;;;19.60;60.90;;;;;;5053162;28;1312;-76
2022/05/21 15:12:50;;;;;;;;;;;19.60;60.90;;;;;;5052821;28;839;-76
2022/05/21 15:15:16;;;;;;;;;;;19.70;61.00;;;;;;5053488;28;831;-77
2022/05/21 15:17:41;;;;;;;;;;;19.70;61.00;;;;;;5051927;28;1118;-76